Time;durP1;ratioP1;P1;durP2;ratioP2;P2;SDS_P1;SDS_P2;PMS_P1;PMS_P2;Temp;Humidity;BMP_temperature;BMP_pressure;BME280_temperature;BME280_humidity;BME280_pressure;Samples;Min_cycle;Max_cycle;Signal;HPM_P1;HPM_P2
2021/04/16 00:01:19;;;;;;;0.00;0.00;;;13.40;60.30;;;;;;4222624;28;20147;-42
2021/04/16 00:03:40;;;;;;;0.00;0.00;;;13.40;60.20;;;;;;4223692;28;20043;-43
2021/04/16 00:06:02;;;;;;;0.00;0.00;;;13.40;60.20;;;;;;4223679;28;20047;-43
2021/04/16 00:08:26;;;;;;;0.00;0.00;;;13.40;60.10;;;;;;4223684;28;20799;-42
2021/04/16 00:10:50;;;;;;;0.00;0.00;;;13.40;60.10;;;;;;4206900;28;20107;-44
2021/04/16 00:13:13;;;;;;;0.00;0.00;;;13.40;60.10;;;;;;4207832;28;20056;-43
2021/04/16 00:15:37;;;;;;;0.00;0.00;;;13.40;60.00;;;;;;4217789;28;20497;-48
2021/04/16 00:17:58;;;;;;;0.00;0.00;;;13.40;60.00;;;;;;4225828;28;20387;-43
2021/04/16 00:20:21;;;;;;;0.10;0.10;;;13.40;60.00;;;;;;4221866;28;20057;-43
2021/04/16 00:22:44;;;;;;;0.00;0.00;;;13.40;60.10;;;;;;4226393;28;20059;-43
2021/04/16 00:25:08;;;;;;;0.10;0.10;;;13.40;60.10;;;;;;4226442;28;20047;-45
2021/04/16 00:27:29;;;;;;;0.00;0.00;;;13.40;60.20;;;;;;4226478;28;20055;-43
2021/04/16 00:29:50;;;;;;;0.00;0.00;;;13.40;60.10;;;;;;4213152;27;20047;-43
2021/04/16 00:32:11;;;;;;;0.10;0.10;;;13.40;60.20;;;;;;4226165;28;20057;-43
2021/04/16 00:34:32;;;;;;;0.00;0.00;;;13.30;60.20;;;;;;4209622;28;20482;-42
2021/04/16 00:36:54;;;;;;;0.00;0.00;;;13.40;60.20;;;;;;4209408;28;20490;-43
2021/04/16 00:39:17;;;;;;;;;;;13.30;60.10;;;;;;4209530;28;20052;-49
2021/04/16 00:41:39;;;;;;;0.00;0.00;;;13.30;60.20;;;;;;4221176;28;19924;-49
2021/04/16 00:44:00;;;;;;;0.00;0.00;;;13.30;60.20;;;;;;4192775;28;20063;-49
2021/04/16 00:46:28;;;;;;;0.00;0.00;;;13.30;60.20;;;;;;4192730;28;20490;-43
2021/04/16 00:48:53;;;;;;;0.00;0.00;;;13.30;60.20;;;;;;4192433;28;20049;-43
2021/04/16 00:51:19;;;;;;;0.10;0.10;;;13.30;60.30;;;;;;4192790;28;20049;-43
2021/04/16 00:53:40;;;;;;;0.25;0.25;;;13.30;60.40;;;;;;4192639;28;20044;-43
2021/04/16 00:56:02;;;;;;;0.00;0.00;;;13.30;60.40;;;;;;4192578;28;20124;-43
2021/04/16 00:58:30;;;;;;;0.00;0.00;;;13.30;60.40;;;;;;4192773;28;20535;-45
2021/04/16 01:00:55;;;;;;;0.20;0.20;;;13.30;60.40;;;;;;4192164;28;20041;-43
2021/04/16 01:03:16;;;;;;;0.00;0.00;;;13.30;60.40;;;;;;4192618;28;20059;-43
2021/04/16 01:05:37;;;;;;;0.00;0.00;;;13.30;60.50;;;;;;4192582;28;20037;-42
2021/04/16 01:07:58;;;;;;;;;;;13.20;60.40;;;;;;4193156;28;20767;-43
2021/04/16 01:10:21;;;;;;;0.00;0.00;;;13.20;60.60;;;;;;4192397;28;19926;-43
2021/04/16 01:12:42;;;;;;;0.00;0.00;;;13.20;60.50;;;;;;4182731;28;20491;-44
2021/04/16 01:15:16;;;;;;;0.00;0.00;;;13.20;60.60;;;;;;4192062;28;20102;-43
2021/04/16 01:17:37;;;;;;;0.00;0.00;;;13.20;60.60;;;;;;4192038;28;20052;-42
2021/04/16 01:20:08;;;;;;;0.00;0.00;;;13.20;60.60;;;;;;4191711;28;20051;-43
2021/04/16 01:22:34;;;;;;;0.63;0.63;;;13.20;60.90;;;;;;4191807;28;20499;-43
2021/04/16 01:24:59;;;;;;;0.00;0.00;;;13.20;61.10;;;;;;4190592;28;20051;-42
2021/04/16 01:27:19;;;;;;;0.00;0.00;;;13.10;61.20;;;;;;4192117;28;20083;-43
2021/04/16 01:29:42;;;;;;;0.10;0.10;;;13.20;61.20;;;;;;4192109;28;20040;-43
2021/04/16 01:32:04;;;;;;;0.00;0.00;;;13.10;61.30;;;;;;4192284;28;20098;-43
2021/04/16 01:34:28;;;;;;;0.00;0.00;;;13.10;61.30;;;;;;4191947;28;20070;-43
2021/04/16 01:36:51;;;;;;;0.00;0.00;;;13.10;61.30;;;;;;4176982;28;20045;-44
2021/04/16 01:39:13;;;;;;;0.00;0.00;;;13.10;61.20;;;;;;4186944;28;20048;-44
2021/04/16 01:41:34;;;;;;;;;;;13.10;61.20;;;;;;4192393;28;20048;-42
2021/04/16 01:43:57;;;;;;;0.00;0.00;;;13.10;61.40;;;;;;4192004;28;19928;-43
2021/04/16 01:46:19;;;;;;;0.20;0.20;;;13.10;61.30;;;;;;4174487;28;20057;-43
2021/04/16 01:48:44;;;;;;;0.10;0.10;;;13.10;61.30;;;;;;4172906;28;20411;-43
2021/04/16 01:51:06;;;;;;;0.00;0.00;;;13.10;61.30;;;;;;4182447;28;20056;-43
2021/04/16 01:53:27;;;;;;;0.00;0.00;;;13.10;61.30;;;;;;4192047;28;20757;-43
2021/04/16 01:55:50;;;;;;;;;;;13.10;61.30;;;;;;4192218;28;22286;-47
2021/04/16 01:58:12;;;;;;;0.30;0.30;;;13.10;61.40;;;;;;4191980;28;19931;-45
2021/04/16 02:00:38;;;;;;;0.08;0.08;;;13.10;61.40;;;;;;4191373;28;20048;-43
2021/04/16 02:02:59;;;;;;;0.00;0.00;;;13.10;61.30;;;;;;4191678;28;20468;-43
2021/04/16 02:05:20;;;;;;;0.10;0.10;;;13.10;61.30;;;;;;4191485;28;20486;-43
2021/04/16 02:07:41;;;;;;;0.00;0.00;;;13.00;61.30;;;;;;4191641;28;20498;-43
2021/04/16 02:10:04;;;;;;;0.00;0.00;;;13.00;61.30;;;;;;4190093;28;20050;-43
2021/04/16 02:12:25;;;;;;;0.00;0.00;;;13.00;61.30;;;;;;4191434;28;20047;-43
2021/04/16 02:14:48;;;;;;;0.00;0.00;;;13.00;61.30;;;;;;4191642;28;20111;-43
2021/04/16 02:17:12;;;;;;;0.32;0.32;;;13.00;61.30;;;;;;4191490;28;20052;-43
2021/04/16 02:19:33;;;;;;;0.00;0.00;;;13.00;61.40;;;;;;4191538;28;20098;-43
2021/04/16 02:21:54;;;;;;;0.10;0.10;;;13.00;61.40;;;;;;4191064;28;20048;-44
2021/04/16 02:24:15;;;;;;;0.00;0.00;;;13.00;61.40;;;;;;4191461;28;20075;-42
2021/04/16 02:26:37;;;;;;;0.00;0.00;;;13.00;61.50;;;;;;4190963;28;20055;-42
2021/04/16 02:28:57;;;;;;;0.00;0.00;;;13.00;61.50;;;;;;4187191;28;20052;-43
2021/04/16 02:31:20;;;;;;;0.00;0.00;;;13.00;61.50;;;;;;4182148;28;20059;-43
2021/04/16 02:33:42;;;;;;;0.00;0.00;;;13.00;61.50;;;;;;4191381;28;20048;-45
2021/04/16 02:36:04;;;;;;;0.00;0.00;;;13.00;61.50;;;;;;4190774;28;20052;-43
2021/04/16 02:38:25;;;;;;;0.20;0.20;;;13.00;61.50;;;;;;4191288;28;20048;-44
2021/04/16 02:40:46;;;;;;;0.00;0.00;;;12.90;61.50;;;;;;4191376;28;20059;-43
2021/04/16 02:43:07;;;;;;;0.00;0.00;;;13.00;61.50;;;;;;4212295;28;20051;-42
2021/04/16 02:45:28;;;;;;;0.00;0.00;;;12.90;61.60;;;;;;4224107;28;20039;-42
2021/04/16 02:47:51;;;;;;;0.00;0.00;;;13.00;61.60;;;;;;4207821;28;20562;-42
2021/04/16 02:50:16;;;;;;;0.25;0.25;;;12.90;61.60;;;;;;4203798;28;20054;-43
2021/04/16 02:52:38;;;;;;;0.00;0.00;;;12.90;61.60;;;;;;4207871;28;20055;-44
2021/04/16 02:54:59;;;;;;;0.00;0.00;;;12.90;61.70;;;;;;4224293;28;20054;-47
2021/04/16 02:57:20;;;;;;;0.00;0.00;;;12.90;61.70;;;;;;4224318;28;20048;-48
2021/04/16 02:59:41;;;;;;;0.00;0.00;;;12.90;61.70;;;;;;4208070;28;20483;-42
2021/04/16 03:02:02;;;;;;;0.00;0.00;;;12.90;61.80;;;;;;4206210;28;20055;-43
2021/04/16 03:04:24;;;;;;;0.00;0.00;;;12.90;61.80;;;;;;4211459;28;20055;-43
2021/04/16 03:06:46;;;;;;;0.00;0.00;;;12.90;61.80;;;;;;4223897;28;20205;-43
2021/04/16 03:09:08;;;;;;;0.00;0.00;;;12.90;61.90;;;;;;4222524;28;20059;-43
2021/04/16 03:11:29;;;;;;;0.00;0.00;;;12.80;61.80;;;;;;4229005;28;20427;-42
2021/04/16 03:13:50;;;;;;;0.00;0.00;;;12.80;61.90;;;;;;4225124;28;20044;-42
2021/04/16 03:16:12;;;;;;;0.00;0.00;;;12.80;62.10;;;;;;4241287;28;20124;-43
2021/04/16 03:18:33;;;;;;;;;;;12.80;62.10;;;;;;4241484;28;20043;-45
2021/04/16 03:20:54;;;;;;;0.10;0.10;;;12.80;62.10;;;;;;4208935;28;19931;-43
2021/04/16 03:23:15;;;;;;;0.00;0.00;;;12.80;62.20;;;;;;4207336;28;20054;-43
2021/04/16 03:25:36;;;;;;;0.75;0.75;;;12.80;62.10;;;;;;4222495;28;20564;-43
2021/04/16 03:27:57;;;;;;;0.15;0.15;;;12.80;62.30;;;;;;4228028;28;20116;-44
2021/04/16 03:30:21;;;;;;;0.00;0.00;;;12.80;62.30;;;;;;4238268;28;20188;-43
2021/04/16 03:32:42;;;;;;;0.00;0.00;;;12.80;62.40;;;;;;4240850;28;20047;-43
2021/04/16 03:35:04;;;;;;;;;;;12.80;62.40;;;;;;4241245;28;20093;-43
2021/04/16 03:37:25;;;;;;;0.00;0.00;;;12.80;62.50;;;;;;4230111;28;20006;-49
2021/04/16 03:39:46;;;;;;;0.00;0.00;;;12.70;62.50;;;;;;4231274;28;20089;-43
2021/04/16 03:42:07;;;;;;;0.00;0.00;;;12.70;62.50;;;;;;4206942;28;20051;-43
2021/04/16 03:44:28;;;;;;;0.00;0.00;;;12.70;62.50;;;;;;4217895;28;20527;-45
2021/04/16 03:46:49;;;;;;;0.00;0.00;;;12.70;62.60;;;;;;4224747;28;20040;-43
2021/04/16 03:49:10;;;;;;;0.00;0.00;;;12.70;62.60;;;;;;4225550;28;20120;-43
2021/04/16 03:51:31;;;;;;;0.00;0.00;;;12.70;62.60;;;;;;4227352;28;20489;-43
2021/04/16 03:53:54;;;;;;;0.00;0.00;;;12.70;62.60;;;;;;4227172;28;20069;-42
2021/04/16 03:56:15;;;;;;;0.22;0.22;;;12.70;62.60;;;;;;4227000;28;20409;-43
2021/04/16 03:58:37;;;;;;;0.10;0.10;;;12.70;62.70;;;;;;4226306;28;20035;-43
2021/04/16 04:00:57;;;;;;;0.00;0.00;;;12.70;62.70;;;;;;4227061;28;20485;-43
2021/04/16 04:03:18;;;;;;;0.25;0.25;;;12.70;62.60;;;;;;4227037;28;20048;-44
2021/04/16 04:05:40;;;;;;;0.00;0.00;;;12.70;62.60;;;;;;4227019;28;20134;-42
2021/04/16 04:08:01;;;;;;;0.00;0.00;;;12.70;62.60;;;;;;4226189;28;20077;-45
2021/04/16 04:10:23;;;;;;;;;;;12.70;62.60;;;;;;4210658;28;20062;-43
2021/04/16 04:12:46;;;;;;;0.00;0.00;;;12.70;62.70;;;;;;4210075;28;20633;-42
2021/04/16 04:15:08;;;;;;;0.00;0.00;;;12.70;62.60;;;;;;4209846;28;20051;-42
2021/04/16 04:17:31;;;;;;;0.13;0.13;;;12.70;62.80;;;;;;4209978;28;20744;-42
2021/04/16 04:19:53;;;;;;;0.00;0.00;;;12.70;63.10;;;;;;4225881;28;20490;-44
2021/04/16 04:22:13;;;;;;;0.00;0.00;;;12.70;63.00;;;;;;4227014;28;20047;-42
2021/04/16 04:24:34;;;;;;;0.00;0.00;;;12.60;62.80;;;;;;4227123;28;20071;-43
2021/04/16 04:26:56;;;;;;;0.00;0.00;;;12.60;62.80;;;;;;4227107;28;20086;-43
2021/04/16 04:29:20;;;;;;;0.00;0.00;;;12.60;62.70;;;;;;4218799;27;20410;-42
2021/04/16 04:31:47;;;;;;;0.10;0.10;;;12.60;62.70;;;;;;4204028;28;20482;-42
2021/04/16 04:34:08;;;;;;;0.00;0.00;;;12.60;62.70;;;;;;4210173;28;20761;-43
2021/04/16 04:36:29;;;;;;;0.00;0.00;;;12.60;62.70;;;;;;4210063;28;20804;-43
2021/04/16 04:38:54;;;;;;;0.52;0.52;;;12.60;62.70;;;;;;4224399;28;20557;-43
2021/04/16 04:41:15;;;;;;;0.47;0.47;;;12.60;62.70;;;;;;4226378;28;20040;-43
2021/04/16 04:43:37;;;;;;;0.00;0.00;;;12.60;62.70;;;;;;4227895;27;20053;-42
2021/04/16 04:45:59;;;;;;;0.08;0.08;;;12.60;62.70;;;;;;4243207;27;20038;-45
2021/04/16 04:48:20;;;;;;;0.00;0.00;;;12.60;62.70;;;;;;4230412;27;20386;-43
2021/04/16 04:50:41;;;;;;;0.17;0.17;;;12.60;62.70;;;;;;4239773;27;20523;-42
2021/04/16 04:53:02;;;;;;;0.22;0.22;;;12.60;62.70;;;;;;4209286;28;20066;-43
2021/04/16 04:55:26;;;;;;;0.00;0.00;;;12.60;62.70;;;;;;4209798;28;20064;-43
2021/04/16 04:57:47;;;;;;;0.00;0.00;;;12.60;62.70;;;;;;4208238;27;20160;-43
2021/04/16 05:00:12;;;;;;;0.00;0.00;;;12.60;63.60;;;;;;4193991;28;20036;-43
2021/04/16 05:02:33;;;;;;;0.10;0.10;;;12.60;62.70;;;;;;4209421;28;20486;-43
2021/04/16 05:04:54;;;;;;;0.00;0.00;;;12.60;62.70;;;;;;4225589;28;20052;-44
2021/04/16 05:07:17;;;;;;;0.47;0.47;;;12.60;62.70;;;;;;4225469;28;20061;-46
2021/04/16 05:09:38;;;;;;;0.00;0.00;;;12.60;62.70;;;;;;4221359;28;20126;-46
2021/04/16 05:11:59;;;;;;;0.10;0.10;;;12.60;62.60;;;;;;4226022;28;20723;-44
2021/04/16 05:14:20;;;;;;;0.00;0.00;;;12.60;62.70;;;;;;4227519;27;20405;-42
2021/04/16 05:16:42;;;;;;;0.00;0.00;;;12.60;62.70;;;;;;4242343;27;20043;-43
2021/04/16 05:19:03;;;;;;;0.08;0.08;;;12.60;62.70;;;;;;4227174;27;20043;-43
2021/04/16 05:21:25;;;;;;;0.00;0.00;;;12.60;62.50;;;;;;4242575;27;20047;-46
2021/04/16 05:23:47;;;;;;;1.05;1.05;;;12.70;62.60;;;;;;4220554;27;20055;-44
2021/04/16 05:26:08;;;;;;;0.00;0.00;;;12.70;62.50;;;;;;4209136;27;20104;-44
2021/04/16 05:28:29;;;;;;;0.00;0.00;;;12.70;62.40;;;;;;4220405;27;20044;-42
2021/04/16 05:30:50;;;;;;;0.00;0.00;;;12.80;62.40;;;;;;4191799;28;20467;-43
2021/04/16 05:33:12;;;;;;;0.00;0.00;;;12.80;62.80;;;;;;4203668;28;20048;-42
2021/04/16 05:35:33;;;;;;;0.00;0.00;;;12.80;63.00;;;;;;4225995;28;20789;-42
2021/04/16 05:37:57;;;;;;;1.35;0.98;;;12.80;63.10;;;;;;4225894;27;20497;-42
2021/04/16 05:40:18;;;;;;;0.00;0.00;;;12.80;63.60;;;;;;4220620;28;20044;-42
2021/04/16 05:42:39;;;;;;;0.55;0.55;;;12.90;63.60;;;;;;4208668;28;20052;-42
2021/04/16 05:45:01;;;;;;;0.00;0.00;;;12.90;63.60;;;;;;4208470;28;20139;-42
2021/04/16 05:47:22;;;;;;;;;;;12.90;64.10;;;;;;4208883;28;20059;-42
2021/04/16 05:49:44;;;;;;;0.00;0.00;;;13.00;63.80;;;;;;4191572;28;20294;-43
2021/04/16 05:52:06;;;;;;;0.00;0.00;;;13.00;63.60;;;;;;4222074;27;20039;-44
2021/04/16 05:54:27;;;;;;;0.00;0.00;;;13.00;63.40;;;;;;4233169;27;20043;-43
2021/04/16 05:56:48;;;;;;;0.00;0.00;;;12.90;63.40;;;;;;4208481;28;20131;-44
2021/04/16 05:59:09;;;;;;;0.00;0.00;;;12.90;63.40;;;;;;4212517;28;20574;-43
2021/04/16 06:01:32;;;;;;;0.00;0.00;;;12.80;63.40;;;;;;4194618;28;20037;-44
2021/04/16 06:03:52;;;;;;;0.00;0.00;;;12.80;63.50;;;;;;4224793;28;20576;-44
2021/04/16 06:06:14;;;;;;;0.00;0.00;;;12.80;63.60;;;;;;4224974;28;20489;-43
2021/04/16 06:08:35;;;;;;;0.00;0.00;;;12.80;63.60;;;;;;4222442;27;20039;-43
2021/04/16 06:10:57;;;;;;;0.10;0.10;;;12.70;63.70;;;;;;4206778;28;20043;-45
2021/04/16 06:13:17;;;;;;;0.25;0.25;;;12.70;64.00;;;;;;4196985;28;20139;-43
2021/04/16 06:15:38;;;;;;;0.10;0.10;;;12.70;64.10;;;;;;4208258;28;20058;-43
2021/04/16 06:17:59;;;;;;;1.13;0.77;;;12.70;64.10;;;;;;4191595;28;20131;-43
2021/04/16 06:20:22;;;;;;;0.00;0.00;;;12.70;64.10;;;;;;4190976;28;20125;-44
2021/04/16 06:22:45;;;;;;;0.00;0.00;;;12.70;64.40;;;;;;4207834;28;20048;-43
2021/04/16 06:25:08;;;;;;;0.17;0.17;;;12.80;64.30;;;;;;4216832;28;20067;-44
2021/04/16 06:27:29;;;;;;;0.00;0.00;;;12.80;64.10;;;;;;4203288;28;20121;-43
2021/04/16 06:29:50;;;;;;;0.30;0.30;;;12.90;64.20;;;;;;4220768;28;20059;-44
2021/04/16 06:32:14;;;;;;;0.28;0.28;;;12.90;64.20;;;;;;4210516;28;20051;-43
2021/04/16 06:34:34;;;;;;;0.00;0.00;;;13.00;64.20;;;;;;4220633;28;20047;-43
2021/04/16 06:36:55;;;;;;;0.00;0.00;;;13.00;64.10;;;;;;4222876;27;20146;-43
2021/04/16 06:39:17;;;;;;;0.45;0.45;;;13.00;64.10;;;;;;4194567;28;20495;-44
2021/04/16 06:41:40;;;;;;;0.00;0.00;;;13.00;64.00;;;;;;4211547;28;20100;-43
2021/04/16 06:44:06;;;;;;;0.20;0.20;;;13.10;64.00;;;;;;4202970;28;20048;-42
2021/04/16 06:46:30;;;;;;;0.98;0.90;;;13.10;64.00;;;;;;4204152;28;20051;-43
2021/04/16 06:48:52;;;;;;;0.00;0.00;;;13.20;64.00;;;;;;4194864;28;20048;-43
2021/04/16 06:51:14;;;;;;;0.57;0.28;;;13.10;64.00;;;;;;4217184;28;20151;-42
2021/04/16 06:53:51;;;;;;;0.00;0.00;;;13.10;64.00;;;;;;4224163;28;20048;-43
2021/04/16 06:56:16;;;;;;;0.00;0.00;;;13.20;64.10;;;;;;4238900;27;20092;-44
2021/04/16 06:58:50;;;;;;;0.00;0.00;;;13.20;64.10;;;;;;4213385;28;20138;-49
2021/04/16 07:01:14;;;;;;;0.00;0.00;;;13.30;64.20;;;;;;4207087;28;20059;-44
2021/04/16 07:03:41;;;;;;;0.00;0.00;;;13.30;64.30;;;;;;4207658;28;20397;-43
2021/04/16 07:06:08;;;;;;;0.20;0.20;;;13.30;64.20;;;;;;4226094;28;20039;-43
2021/04/16 07:08:35;;;;;;;0.55;0.55;;;13.30;64.10;;;;;;4224640;28;20056;-44
2021/04/16 07:11:22;;;;;;;0.50;0.50;;;13.40;64.20;;;;;;4207082;28;20055;-44
2021/04/16 07:14:14;;;;;;;0.00;0.00;;;13.40;64.10;;;;;;4207824;28;20513;-42
2021/04/16 07:17:01;;;;;;;0.00;0.00;;;13.40;64.20;;;;;;4207730;28;20053;-46
2021/04/16 07:19:48;;;;;;;0.00;0.00;;;13.30;64.10;;;;;;4207250;28;20063;-43
2021/04/16 07:22:40;;;;;;;0.00;0.00;;;13.40;64.10;;;;;;4192930;28;20054;-44
2021/04/16 07:25:31;;;;;;;;;;;13.40;64.30;;;;;;4195035;28;20079;-46
2021/04/16 07:27:57;;;;;;;0.00;0.00;;;13.40;64.30;;;;;;4194506;28;19984;-44
2021/04/16 07:30:47;;;;;;;5.20;2.85;;;13.40;64.10;;;;;;4227196;28;20096;-44
2021/04/16 07:33:39;;;;;;;0.00;0.00;;;13.50;64.40;;;;;;4200490;28;20106;-43
2021/04/16 07:36:30;;;;;;;0.00;0.00;;;13.50;64.60;;;;;;4200299;28;20054;-44
2021/04/16 07:39:27;;;;;;;1.08;0.95;;;13.50;64.30;;;;;;4215938;28;20574;-43
2021/04/16 07:42:17;;;;;;;0.30;0.30;;;13.50;64.00;;;;;;4209405;28;20071;-43
2021/04/16 07:45:34;;;;;;;1.15;1.13;;;13.50;63.60;;;;;;4220706;28;20065;-43
2021/04/16 07:48:32;;;;;;;0.00;0.00;;;13.50;63.40;;;;;;4226530;28;20575;-43
2021/04/16 07:50:56;;;;;;;0.00;0.00;;;13.60;63.20;;;;;;4199359;28;20047;-43
2021/04/16 07:53:30;;;;;;;0.10;0.10;;;13.50;62.80;;;;;;4215372;28;20074;-43
2021/04/16 07:56:09;;;;;;;0.00;0.00;;;13.60;62.20;;;;;;4218029;28;20048;-45
2021/04/16 07:58:30;;;;;;;1.45;1.35;;;13.60;61.90;;;;;;4209678;28;20105;-44
2021/04/16 08:00:52;;;;;;;0.00;0.00;;;13.60;61.70;;;;;;4210429;28;20044;-43
2021/04/16 08:03:16;;;;;;;0.13;0.13;;;13.60;61.60;;;;;;4224455;27;20104;-44
2021/04/16 08:05:40;;;;;;;0.00;0.00;;;13.60;61.40;;;;;;4193668;28;20645;-45
2021/04/16 08:08:10;;;;;;;0.00;0.00;;;13.70;61.20;;;;;;4212666;28;20424;-43
2021/04/16 08:10:31;;;;;;;0.00;0.00;;;13.70;60.90;;;;;;4219464;28;20097;-43
2021/04/16 08:13:02;;;;;;;;;;;13.70;60.60;;;;;;4215540;28;20146;-43
2021/04/16 08:15:29;;;;;;;0.00;0.00;;;13.70;60.20;;;;;;4200765;28;25036;-45
2021/04/16 08:17:51;;;;;;;0.10;0.10;;;13.70;59.80;;;;;;4210414;28;20117;-43
2021/04/16 08:20:20;;;;;;;0.03;0.03;;;13.70;59.60;;;;;;4207137;28;20479;-45
2021/04/16 08:23:04;;;;;;;0.05;0.05;;;13.70;59.30;;;;;;4212260;28;20059;-43
2021/04/16 08:25:46;;;;;;;0.20;0.20;;;13.70;59.10;;;;;;4210694;27;20135;-44
2021/04/16 08:28:10;;;;;;;0.00;0.00;;;13.80;59.10;;;;;;4195927;28;20138;-43
2021/04/16 08:30:45;;;;;;;0.00;0.00;;;13.80;58.70;;;;;;4206967;28;20051;-43
2021/04/16 08:33:15;;;;;;;0.00;0.00;;;13.80;58.30;;;;;;4209337;28;20048;-43
2021/04/16 08:35:45;;;;;;;0.03;0.03;;;13.80;57.90;;;;;;4207545;28;20418;-44
2021/04/16 08:38:09;;;;;;;0.35;0.35;;;13.80;57.80;;;;;;4208814;28;20060;-42
2021/04/16 08:40:33;;;;;;;0.00;0.00;;;13.80;57.80;;;;;;4196709;28;20392;-43
2021/04/16 08:42:57;;;;;;;0.43;0.43;;;13.80;57.70;;;;;;4201042;28;20147;-42
2021/04/16 08:45:22;;;;;;;1.85;0.25;;;13.80;57.60;;;;;;4208979;28;20056;-48
2021/04/16 08:47:52;;;;;;;0.43;0.43;;;13.80;57.80;;;;;;4209212;28;20047;-50
2021/04/16 08:50:15;;;;;;;0.00;0.00;;;13.80;57.70;;;;;;4203760;28;20074;-42
2021/04/16 08:52:44;;;;;;;0.00;0.00;;;13.90;58.10;;;;;;4208053;28;20048;-43
2021/04/16 08:55:19;;;;;;;0.20;0.20;;;13.90;58.60;;;;;;4207343;28;20036;-42
2021/04/16 08:57:51;;;;;;;0.00;0.00;;;14.00;59.00;;;;;;4209077;28;20448;-43
2021/04/16 09:00:19;;;;;;;0.00;0.00;;;14.00;58.80;;;;;;4205550;28;20101;-43
2021/04/16 09:02:50;;;;;;;0.30;0.30;;;14.00;59.20;;;;;;4193441;28;20048;-43
2021/04/16 09:05:17;;;;;;;0.00;0.00;;;14.00;58.90;;;;;;4194842;28;20051;-43
2021/04/16 09:07:59;;;;;;;0.00;0.00;;;14.00;58.40;;;;;;4203274;28;20155;-42
2021/04/16 09:10:51;;;;;;;0.00;0.00;;;14.00;58.50;;;;;;4216576;28;20126;-42
2021/04/16 09:13:29;;;;;;;0.10;0.10;;;14.10;58.40;;;;;;4225702;27;20048;-42
2021/04/16 09:15:51;;;;;;;0.00;0.00;;;14.10;57.90;;;;;;4218737;27;20047;-42
2021/04/16 09:18:30;;;;;;;0.40;0.40;;;14.10;57.30;;;;;;4203057;28;20036;-42
2021/04/16 09:21:22;;;;;;;0.00;0.00;;;14.10;57.00;;;;;;4209506;28;20052;-43
2021/04/16 09:24:11;;;;;;;0.75;0.73;;;14.10;56.80;;;;;;4220012;28;20051;-42
2021/04/16 09:26:56;;;;;;;0.20;0.20;;;14.10;56.60;;;;;;4204792;28;20063;-42
2021/04/16 09:29:34;;;;;;;0.00;0.00;;;14.10;56.60;;;;;;4213133;28;20382;-42
2021/04/16 09:31:57;;;;;;;0.73;0.43;;;14.10;56.50;;;;;;4206860;28;20047;-42
2021/04/16 09:34:25;;;;;;;0.10;0.10;;;14.10;56.40;;;;;;4200176;28;20048;-42
2021/04/16 09:36:51;;;;;;;0.00;0.00;;;14.10;56.40;;;;;;4217166;27;20063;-42
2021/04/16 09:39:16;;;;;;;0.00;0.00;;;14.10;56.60;;;;;;4198712;28;20387;-42
2021/04/16 09:41:37;;;;;;;4.57;1.75;;;14.10;56.70;;;;;;4203187;28;20129;-43
2021/04/16 09:44:01;;;;;;;0.10;0.10;;;14.20;56.90;;;;;;4206460;28;20063;-43
2021/04/16 09:46:39;;;;;;;0.32;0.32;;;14.20;57.00;;;;;;4204388;28;20715;-43
2021/04/16 09:49:03;;;;;;;0.10;0.10;;;14.20;56.90;;;;;;4203884;28;20044;-42
2021/04/16 09:51:34;;;;;;;0.90;0.90;;;14.20;57.00;;;;;;4224816;28;20048;-44
2021/04/16 09:54:10;;;;;;;;;;;14.20;57.20;;;;;;4225261;28;20055;-45
2021/04/16 09:56:33;;;;;;;0.50;0.50;;;14.20;57.70;;;;;;4208296;28;20018;-44
2021/04/16 09:59:05;;;;;;;0.35;0.35;;;14.20;58.10;;;;;;4213433;27;20421;-43
2021/04/16 10:01:26;;;;;;;0.00;0.00;;;14.30;57.90;;;;;;4211124;28;20131;-43
2021/04/16 10:03:51;;;;;;;0.35;0.35;;;14.30;57.70;;;;;;4197401;27;20044;-44
2021/04/16 10:06:39;;;;;;;0.08;0.08;;;14.30;57.60;;;;;;4196065;28;20048;-44
2021/04/16 10:09:20;;;;;;;0.65;0.65;;;14.30;57.50;;;;;;4198942;28;20552;-44
2021/04/16 10:11:49;;;;;;;0.55;0.55;;;14.40;57.70;;;;;;4191402;28;20110;-44
2021/04/16 10:14:21;;;;;;;0.00;0.00;;;14.40;57.60;;;;;;4191561;27;20067;-43
2021/04/16 10:16:44;;;;;;;0.22;0.22;;;14.40;57.60;;;;;;4241806;27;20049;-44
2021/04/16 10:19:10;;;;;;;0.10;0.10;;;14.40;57.50;;;;;;4220036;28;20051;-43
2021/04/16 10:21:32;;;;;;;0.10;0.10;;;14.40;57.70;;;;;;4206484;28;20062;-43
2021/04/16 10:24:28;;;;;;;0.22;0.22;;;14.40;57.80;;;;;;4224445;28;20155;-48
2021/04/16 12:38:39;;;;;;;0.20;0.20;;;14.60;59.50;;;;;;4212589;27;20048;-43
2021/04/16 12:41:04;;;;;;;0.52;0.52;;;14.70;59.60;;;;;;4193988;28;20044;-47
2021/04/16 12:43:25;;;;;;;0.30;0.30;;;14.70;59.60;;;;;;4209349;28;20490;-42
2021/04/16 12:45:46;;;;;;;;;;;14.70;59.50;;;;;;4192909;28;20503;-43
2021/04/16 12:48:07;;;;;;;0.10;0.10;;;14.70;59.30;;;;;;4199044;28;19930;-42
2021/04/16 12:50:32;;;;;;;0.30;0.30;;;14.70;59.40;;;;;;4209128;28;20410;-43
2021/04/16 12:52:54;;;;;;;0.00;0.00;;;14.70;59.20;;;;;;4209438;28;20050;-42
2021/04/16 12:55:18;;;;;;;0.10;0.10;;;14.70;59.20;;;;;;4221287;28;20128;-45
2021/04/16 12:57:41;;;;;;;0.00;0.00;;;14.70;59.20;;;;;;4222041;27;20039;-45
2021/04/16 13:00:02;;;;;;;1.52;0.93;;;14.70;59.20;;;;;;4205464;28;20048;-44
2021/04/16 13:02:26;;;;;;;0.85;0.75;;;14.70;59.20;;;;;;4209110;28;20048;-43
2021/04/16 13:04:49;;;;;;;0.43;0.43;;;14.70;59.30;;;;;;4211535;28;20081;-43
2021/04/16 13:07:09;;;;;;;0.30;0.30;;;14.70;59.30;;;;;;4225919;28;20071;-44
2021/04/16 13:09:30;;;;;;;0.85;0.85;;;14.70;59.30;;;;;;4225513;28;20051;-43
2021/04/16 13:11:53;;;;;;;0.00;0.00;;;14.70;59.30;;;;;;4225495;28;20131;-43
2021/04/16 13:14:14;;;;;;;0.20;0.20;;;14.70;59.30;;;;;;4222584;28;20512;-45
2021/04/16 13:16:36;;;;;;;0.10;0.10;;;14.80;59.30;;;;;;4211250;28;20486;-44
2021/04/16 13:19:01;;;;;;;0.00;0.00;;;14.80;59.20;;;;;;4192269;28;20160;-44
2021/04/16 13:21:27;;;;;;;0.00;0.00;;;14.80;59.30;;;;;;4208223;28;20048;-47
2021/04/16 13:23:50;;;;;;;0.00;0.00;;;14.80;59.20;;;;;;4214490;27;20052;-47
2021/04/16 13:26:11;;;;;;;0.00;0.00;;;14.80;59.00;;;;;;4242537;27;20553;-45
2021/04/16 13:28:33;;;;;;;;;;;14.80;58.80;;;;;;4242182;27;20051;-47
2021/04/16 13:30:54;;;;;;;0.82;0.82;;;14.80;58.60;;;;;;4242425;27;20016;-49
2021/04/16 13:33:19;;;;;;;0.00;0.00;;;14.80;58.80;;;;;;4242097;27;20043;-49
2021/04/16 13:35:43;;;;;;;0.00;0.00;;;14.80;58.80;;;;;;4210177;28;22859;-45
2021/04/16 13:38:07;;;;;;;0.32;0.32;;;14.90;59.00;;;;;;4224585;28;20054;-45
2021/04/16 13:40:29;;;;;;;0.00;0.00;;;14.90;58.60;;;;;;4208677;28;20040;-43
2021/04/16 13:42:53;;;;;;;0.00;0.00;;;14.90;58.50;;;;;;4208857;28;20044;-44
2021/04/16 13:45:16;;;;;;;0.00;0.00;;;14.90;57.90;;;;;;4215042;27;20075;-45
2021/04/16 13:47:42;;;;;;;0.00;0.00;;;14.90;58.00;;;;;;4208911;28;20044;-49
2021/04/16 13:50:05;;;;;;;0.28;0.28;;;14.90;57.90;;;;;;4208380;28;20068;-46
2021/04/16 13:52:26;;;;;;;0.00;0.00;;;14.90;57.60;;;;;;4208319;28;20446;-45
2021/04/16 13:54:48;;;;;;;0.45;0.45;;;14.90;57.50;;;;;;4213629;27;20411;-46
2021/04/16 13:57:10;;;;;;;0.10;0.10;;;14.90;57.50;;;;;;4240407;27;20047;-44
2021/04/16 13:59:31;;;;;;;0.00;0.00;;;14.90;57.90;;;;;;4240668;27;20047;-44
2021/04/16 14:01:54;;;;;;;;;;;14.90;57.80;;;;;;4225478;27;20134;-43
2021/04/16 14:04:22;;;;;;;0.00;0.00;;;14.90;57.20;;;;;;4225498;27;19931;-43
2021/04/16 14:06:43;;;;;;;0.25;0.25;;;14.90;57.30;;;;;;4191918;28;20044;-43
2021/04/16 14:09:08;;;;;;;0.70;0.70;;;14.90;57.60;;;;;;4191441;28;20040;-44
2021/04/16 14:11:31;;;;;;;0.10;0.10;;;15.00;57.40;;;;;;4191772;28;20119;-44
2021/04/16 14:13:53;;;;;;;0.00;0.00;;;15.00;56.90;;;;;;4194708;28;20118;-45
2021/04/16 14:16:25;;;;;;;0.00;0.00;;;15.00;57.10;;;;;;4191308;28;20718;-44
2021/04/16 14:18:49;;;;;;;0.00;0.00;;;14.90;56.60;;;;;;4207492;28;20048;-43
2021/04/16 14:21:13;;;;;;;0.25;0.25;;;15.00;56.30;;;;;;4211573;28;20497;-44
2021/04/16 14:23:34;;;;;;;0.00;0.00;;;15.00;56.30;;;;;;4209010;28;20125;-43
2021/04/16 14:25:56;;;;;;;0.10;0.10;;;14.90;56.40;;;;;;4219091;28;22739;-43
2021/04/16 14:28:19;;;;;;;0.00;0.00;;;15.00;56.60;;;;;;4202318;28;20051;-43
2021/04/16 14:30:41;;;;;;;1.45;1.15;;;14.90;56.40;;;;;;4240201;27;20520;-44
2021/04/16 14:33:06;;;;;;;0.10;0.10;;;15.00;56.30;;;;;;4238116;27;20120;-45
2021/04/16 14:35:30;;;;;;;0.47;0.47;;;15.00;56.10;;;;;;4238898;27;20055;-43
2021/04/16 14:37:51;;;;;;;0.00;0.00;;;15.00;56.00;;;;;;4218009;28;20486;-43
2021/04/16 14:40:14;;;;;;;0.00;0.00;;;15.00;55.80;;;;;;4190804;28;20052;-44
2021/04/16 14:42:35;;;;;;;0.00;0.00;;;15.00;55.50;;;;;;4200490;28;20821;-43
2021/04/16 14:44:56;;;;;;;0.00;0.00;;;15.00;55.70;;;;;;4207784;28;20483;-43
2021/04/16 14:47:17;;;;;;;0.93;0.22;;;15.00;55.50;;;;;;4207791;28;20055;-43
2021/04/16 14:49:38;;;;;;;0.82;0.82;;;15.00;55.60;;;;;;4207951;28;20429;-44
2021/04/16 14:52:03;;;;;;;0.00;0.00;;;15.00;55.60;;;;;;4207734;28;20144;-43